SWR438A EGLL-LSZH
Flight info
| Callsign | SWR438A |
|---|---|
| Flight time | N/A |
| Altitude | 35000 |
| Route | DET L6 DVR UL9 KONAN DCT KOK DCT SISGA DCT RITAX DCT KRH M150 LAMGO T721 SUL T721 RILAX |
| Aircraft | B77W/H-SDE1E2E3FGHIJ2J3J4J5M1RWXY/LB1D1 |
Departure
| Time | N/A |
|---|---|
| Airport | London Heathrow Airport (EGLL) |
Arrival
| Time | 2026-05-04 19:25 |
|---|---|
| Airport | Zürich Airport (LSZH) |
| Time | Latitude | Longitude | Altitude | Speed | Heading |
|---|---|---|---|---|---|
| 2026-05-04 18:29 | 50.87378 | 3.31265 | 34951 ft | 472 kts | 122° |
| 2026-05-04 18:29 | 50.85860 | 3.35744 | 34954 ft | 471 kts | 122° |
| 2026-05-04 18:29 | 50.82821 | 3.44685 | 34945 ft | 471 kts | 122° |
| 2026-05-04 18:30 | 50.78182 | 3.58276 | 34943 ft | 469 kts | 122° |
| 2026-05-04 18:31 | 50.75219 | 3.66915 | 34947 ft | 469 kts | 123° |
| 2026-05-04 18:31 | 50.72130 | 3.75891 | 34946 ft | 469 kts | 123° |
| 2026-05-04 18:32 | 50.69059 | 3.84785 | 34946 ft | 469 kts | 123° |
| 2026-05-04 18:32 | 50.65939 | 3.93787 | 34945 ft | 469 kts | 123° |
| 2026-05-04 18:33 | 50.62868 | 4.02618 | 34947 ft | 469 kts | 123° |
| 2026-05-04 18:33 | 50.59909 | 4.11674 | 34944 ft | 472 kts | 119° |
| 2026-05-04 18:34 | 50.57212 | 4.20848 | 34950 ft | 472 kts | 119° |
| 2026-05-04 18:34 | 50.54443 | 4.30164 | 34949 ft | 472 kts | 119° |
| 2026-05-04 18:35 | 50.51716 | 4.39264 | 34960 ft | 473 kts | 120° |
| 2026-05-04 18:35 | 50.48953 | 4.48425 | 34962 ft | 470 kts | 120° |
| 2026-05-04 18:36 | 50.46200 | 4.57506 | 34952 ft | 472 kts | 120° |
| 2026-05-04 18:36 | 50.43414 | 4.66655 | 34956 ft | 471 kts | 121° |
| 2026-05-04 18:37 | 50.40642 | 4.75720 | 34949 ft | 470 kts | 121° |
| 2026-05-04 18:37 | 50.37848 | 4.84822 | 34952 ft | 472 kts | 121° |
| 2026-05-04 18:38 | 50.35002 | 4.94060 | 34946 ft | 471 kts | 121° |
| 2026-05-04 18:38 | 50.32156 | 5.03260 | 34943 ft | 473 kts | 121° |
| 2026-05-04 18:39 | 50.29310 | 5.12430 | 34950 ft | 471 kts | 121° |
| 2026-05-04 18:39 | 50.26448 | 5.21608 | 34951 ft | 473 kts | 121° |
| 2026-05-04 18:40 | 50.23593 | 5.30737 | 34949 ft | 472 kts | 121° |
| 2026-05-04 18:40 | 50.20693 | 5.39974 | 34953 ft | 471 kts | 121° |
| 2026-05-04 18:41 | 50.17849 | 5.49000 | 34943 ft | 471 kts | 121° |
| 2026-05-04 18:41 | 50.14955 | 5.58147 | 34946 ft | 474 kts | 121° |
| 2026-05-04 18:42 | 50.12072 | 5.67229 | 34955 ft | 472 kts | 122° |
| 2026-05-04 18:42 | 50.09196 | 5.76255 | 34947 ft | 472 kts | 122° |
| 2026-05-04 18:43 | 50.06216 | 5.85202 | 34956 ft | 473 kts | 126° |
| 2026-05-04 18:43 | 50.02935 | 5.93917 | 34959 ft | 471 kts | 126° |
| 2026-05-04 18:44 | 49.99690 | 6.02541 | 34953 ft | 471 kts | 126° |
| 2026-05-04 18:44 | 49.96436 | 6.11199 | 34956 ft | 469 kts | 126° |
| 2026-05-04 18:45 | 49.93176 | 6.19866 | 34960 ft | 467 kts | 126° |
| 2026-05-04 18:45 | 49.89970 | 6.28365 | 34966 ft | 472 kts | 126° |
| 2026-05-04 18:46 | 49.86661 | 6.37118 | 34982 ft | 471 kts | 126° |
| 2026-05-04 18:46 | 49.83373 | 6.45792 | 34982 ft | 471 kts | 126° |
| 2026-05-04 18:47 | 49.80080 | 6.54450 | 34985 ft | 473 kts | 126° |
| 2026-05-04 18:47 | 49.76751 | 6.63174 | 34982 ft | 472 kts | 126° |
| 2026-05-04 18:48 | 49.73475 | 6.71733 | 34975 ft | 472 kts | 127° |
| 2026-05-04 18:48 | 49.70244 | 6.80146 | 34985 ft | 473 kts | 127° |
| 2026-05-04 18:49 | 49.66943 | 6.88716 | 34981 ft | 471 kts | 127° |
| 2026-05-04 18:49 | 49.63634 | 6.97274 | 34985 ft | 473 kts | 127° |
| 2026-05-04 18:50 | 49.60267 | 7.05955 | 34980 ft | 473 kts | 127° |
| 2026-05-04 18:50 | 49.56913 | 7.14576 | 34983 ft | 474 kts | 126° |
| 2026-05-04 18:51 | 49.53551 | 7.23186 | 34991 ft | 475 kts | 126° |
| 2026-05-04 18:51 | 49.50222 | 7.31696 | 34522 ft | 464 kts | 126° |
| 2026-05-04 18:51 | 49.48568 | 7.35904 | 33619 ft | 469 kts | 126° |
| 2026-05-04 18:52 | 49.46893 | 7.40160 | 33049 ft | 468 kts | 126° |
| 2026-05-04 18:52 | 49.43515 | 7.48724 | 32984 ft | 478 kts | 126° |
| 2026-05-04 18:53 | 49.40100 | 7.57361 | 32987 ft | 479 kts | 126° |
| 2026-05-04 18:53 | 49.36688 | 7.65964 | 32985 ft | 477 kts | 126° |
| 2026-05-04 18:54 | 49.33277 | 7.74531 | 32978 ft | 477 kts | 127° |
| 2026-05-04 18:54 | 49.29829 | 7.83166 | 32980 ft | 478 kts | 126° |
| 2026-05-04 18:55 | 49.26390 | 7.91750 | 32972 ft | 478 kts | 126° |
| 2026-05-04 18:55 | 49.21214 | 8.04615 | 32972 ft | 478 kts | 126° |
| 2026-05-04 18:56 | 49.17834 | 8.12983 | 32968 ft | 479 kts | 126° |
| 2026-05-04 18:56 | 49.14328 | 8.21638 | 32968 ft | 480 kts | 126° |
| 2026-05-04 18:57 | 49.10925 | 8.30015 | 32272 ft | 471 kts | 126° |
| 2026-05-04 18:57 | 49.09233 | 8.34165 | 31259 ft | 476 kts | 126° |
| 2026-05-04 18:57 | 49.07539 | 8.38313 | 30503 ft | 475 kts | 126° |
| 2026-05-04 18:58 | 49.05825 | 8.42509 | 29991 ft | 468 kts | 126° |
| 2026-05-04 18:58 | 49.04250 | 8.46361 | 29555 ft | 462 kts | 125° |
| 2026-05-04 18:58 | 49.02507 | 8.50613 | 28980 ft | 457 kts | 125° |
| 2026-05-04 18:58 | 49.00877 | 8.54581 | 28350 ft | 454 kts | 125° |
| 2026-05-04 18:59 | 48.99178 | 8.58467 | 27689 ft | 449 kts | 130° |
| 2026-05-04 18:59 | 48.97273 | 8.62061 | 27068 ft | 445 kts | 133° |
| 2026-05-04 18:59 | 48.95352 | 8.65584 | 26511 ft | 440 kts | 134° |
| 2026-05-04 18:59 | 48.93288 | 8.68858 | 25953 ft | 431 kts | 142° |
| 2026-05-04 19:00 | 48.90893 | 8.71544 | 25359 ft | 423 kts | 152° |
| 2026-05-04 19:00 | 48.88401 | 8.73444 | 24753 ft | 417 kts | 161° |
| 2026-05-04 19:00 | 48.85726 | 8.74685 | 24173 ft | 411 kts | 171° |
| 2026-05-04 19:00 | 48.82933 | 8.75232 | 23590 ft | 405 kts | 180° |
| 2026-05-04 19:01 | 48.80127 | 8.75066 | 23014 ft | 400 kts | 188° |
| 2026-05-04 19:01 | 48.77430 | 8.74520 | 22484 ft | 397 kts | 189° |
| 2026-05-04 19:01 | 48.74768 | 8.73928 | 21948 ft | 394 kts | 190° |
| 2026-05-04 19:01 | 48.72049 | 8.73289 | 21381 ft | 391 kts | 190° |
| 2026-05-04 19:02 | 48.69381 | 8.72637 | 20836 ft | 388 kts | 191° |
| 2026-05-04 19:02 | 48.66711 | 8.71966 | 20290 ft | 386 kts | 191° |
| 2026-05-04 19:02 | 48.64084 | 8.71294 | 19752 ft | 383 kts | 191° |
| 2026-05-04 19:02 | 48.61485 | 8.70622 | 19231 ft | 380 kts | 191° |
| 2026-05-04 19:03 | 48.58903 | 8.69949 | 18687 ft | 377 kts | 191° |
| 2026-05-04 19:03 | 48.56339 | 8.69277 | 18145 ft | 375 kts | 191° |
| 2026-05-04 19:03 | 48.53757 | 8.68598 | 17585 ft | 374 kts | 191° |
| 2026-05-04 19:03 | 48.51232 | 8.67933 | 17085 ft | 371 kts | 191° |
| 2026-05-04 19:04 | 48.48679 | 8.67259 | 16566 ft | 368 kts | 191° |
| 2026-05-04 19:04 | 48.46205 | 8.66606 | 16074 ft | 365 kts | 191° |
| 2026-05-04 19:04 | 48.43693 | 8.65943 | 15570 ft | 362 kts | 191° |
| 2026-05-04 19:04 | 48.41239 | 8.65296 | 15048 ft | 360 kts | 191° |
| 2026-05-04 19:05 | 48.38767 | 8.64644 | 14555 ft | 358 kts | 191° |
| 2026-05-04 19:05 | 48.36355 | 8.63974 | 14048 ft | 355 kts | 192° |
| 2026-05-04 19:05 | 48.33918 | 8.63228 | 13522 ft | 353 kts | 192° |
| 2026-05-04 19:05 | 48.31519 | 8.62491 | 13067 ft | 350 kts | 192° |
| 2026-05-04 19:06 | 48.29183 | 8.61779 | 12610 ft | 346 kts | 192° |
| 2026-05-04 19:06 | 48.26810 | 8.61060 | 12138 ft | 343 kts | 192° |
| 2026-05-04 19:06 | 48.24504 | 8.60364 | 11679 ft | 340 kts | 191° |
| 2026-05-04 19:06 | 48.22225 | 8.59678 | 11474 ft | 328 kts | 191° |
| 2026-05-04 19:07 | 48.20026 | 8.59017 | 11412 ft | 314 kts | 191° |
| 2026-05-04 19:07 | 48.17929 | 8.58386 | 11373 ft | 299 kts | 191° |
| 2026-05-04 19:07 | 48.15930 | 8.57787 | 11221 ft | 289 kts | 191° |
| 2026-05-04 19:07 | 48.14022 | 8.57218 | 11201 ft | 274 kts | 191° |
| 2026-05-04 19:08 | 48.12173 | 8.56667 | 11102 ft | 264 kts | 191° |
| 2026-05-04 19:08 | 48.10415 | 8.56144 | 10998 ft | 262 kts | 191° |
| 2026-05-04 19:08 | 48.08614 | 8.55608 | 10988 ft | 263 kts | 191° |
| 2026-05-04 19:08 | 48.06817 | 8.55073 | 10995 ft | 265 kts | 191° |
| 2026-05-04 19:09 | 48.05023 | 8.54540 | 10903 ft | 259 kts | 191° |
| 2026-05-04 19:09 | 48.03236 | 8.54009 | 10477 ft | 262 kts | 190° |
| 2026-05-04 19:09 | 48.01472 | 8.53485 | 10159 ft | 260 kts | 190° |
| 2026-05-04 19:09 | 47.99717 | 8.52964 | 9866 ft | 257 kts | 190° |
| 2026-05-04 19:10 | 47.97963 | 8.52444 | 9540 ft | 256 kts | 190° |
| 2026-05-04 19:10 | 47.96220 | 8.51943 | 9147 ft | 257 kts | 187° |
| 2026-05-04 19:10 | 47.94439 | 8.52140 | 8673 ft | 259 kts | 162° |
| 2026-05-04 19:10 | 47.92878 | 8.53487 | 8236 ft | 262 kts | 141° |
| 2026-05-04 19:11 | 47.91550 | 8.55273 | 7947 ft | 260 kts | 138° |
| 2026-05-04 19:11 | 47.90241 | 8.57144 | 7641 ft | 259 kts | 137° |
| 2026-05-04 19:11 | 47.88952 | 8.58995 | 7288 ft | 260 kts | 137° |
| 2026-05-04 19:11 | 47.87643 | 8.60868 | 7030 ft | 257 kts | 137° |
| 2026-05-04 19:12 | 47.86359 | 8.62705 | 7001 ft | 260 kts | 137° |
| 2026-05-04 19:12 | 47.83741 | 8.66440 | 7013 ft | 260 kts | 137° |
| 2026-05-04 19:12 | 47.82448 | 8.68285 | 7006 ft | 259 kts | 137° |
| 2026-05-04 19:13 | 47.81141 | 8.70146 | 6995 ft | 259 kts | 137° |
| 2026-05-04 19:13 | 47.79850 | 8.71984 | 7006 ft | 259 kts | 137° |
| 2026-05-04 19:13 | 47.78534 | 8.73857 | 7005 ft | 259 kts | 137° |
| 2026-05-04 19:13 | 47.77232 | 8.75708 | 7002 ft | 259 kts | 137° |
| 2026-05-04 19:14 | 47.75930 | 8.77557 | 6994 ft | 259 kts | 137° |
| 2026-05-04 19:14 | 47.74632 | 8.79400 | 6995 ft | 259 kts | 137° |
| 2026-05-04 19:14 | 47.73325 | 8.81254 | 7000 ft | 260 kts | 137° |
| 2026-05-04 19:14 | 47.72032 | 8.83086 | 6997 ft | 259 kts | 137° |
| 2026-05-04 19:15 | 47.70723 | 8.84940 | 6995 ft | 260 kts | 137° |
| 2026-05-04 19:15 | 47.69400 | 8.86812 | 6995 ft | 261 kts | 137° |
| 2026-05-04 19:15 | 47.68067 | 8.88576 | 7007 ft | 260 kts | 140° |
| 2026-05-04 19:15 | 47.66682 | 8.90324 | 7009 ft | 260 kts | 140° |
| 2026-05-04 19:16 | 47.65297 | 8.92065 | 6997 ft | 261 kts | 140° |
| 2026-05-04 19:16 | 47.63916 | 8.93799 | 7015 ft | 260 kts | 140° |
| 2026-05-04 19:16 | 47.62543 | 8.95523 | 7009 ft | 260 kts | 140° |
| 2026-05-04 19:16 | 47.61153 | 8.97266 | 7005 ft | 260 kts | 140° |
| 2026-05-04 19:17 | 47.59786 | 8.98980 | 7001 ft | 259 kts | 140° |
| 2026-05-04 19:17 | 47.58397 | 9.00719 | 7004 ft | 259 kts | 140° |
| 2026-05-04 19:17 | 47.57020 | 9.02442 | 7003 ft | 260 kts | 140° |
| 2026-05-04 19:17 | 47.55640 | 9.04168 | 7008 ft | 261 kts | 140° |
| 2026-05-04 19:18 | 47.54157 | 9.05658 | 6998 ft | 260 kts | 158° |
| 2026-05-04 19:18 | 47.52398 | 9.06149 | 7004 ft | 260 kts | 180° |
| 2026-05-04 19:18 | 47.50581 | 9.05985 | 7002 ft | 261 kts | 185° |
| 2026-05-04 19:18 | 47.48783 | 9.05706 | 7021 ft | 261 kts | 185° |
| 2026-05-04 19:19 | 47.46956 | 9.05405 | 7011 ft | 261 kts | 186° |
| 2026-05-04 19:19 | 47.45175 | 9.04918 | 6994 ft | 261 kts | 201° |
| 2026-05-04 19:19 | 47.43679 | 9.03404 | 7000 ft | 264 kts | 227° |
| 2026-05-04 19:19 | 47.42796 | 9.01050 | 6890 ft | 268 kts | 253° |
| 2026-05-04 19:20 | 47.42659 | 8.98310 | 6664 ft | 268 kts | 272° |
| 2026-05-04 19:20 | 47.42835 | 8.95596 | 6431 ft | 267 kts | 275° |
| 2026-05-04 19:20 | 47.43046 | 8.92884 | 6216 ft | 265 kts | 275° |
| 2026-05-04 19:20 | 47.43256 | 8.90170 | 6014 ft | 265 kts | 275° |
| 2026-05-04 19:21 | 47.43456 | 8.87520 | 5760 ft | 262 kts | 276° |
| 2026-05-04 19:21 | 47.43656 | 8.84829 | 5390 ft | 265 kts | 275° |
| 2026-05-04 19:21 | 47.43856 | 8.82112 | 5017 ft | 267 kts | 276° |
| 2026-05-04 19:21 | 47.44051 | 8.79452 | 4659 ft | 252 kts | 276° |
| 2026-05-04 19:22 | 47.44228 | 8.76941 | 4310 ft | 238 kts | 276° |
| 2026-05-04 19:22 | 47.44392 | 8.74574 | 3987 ft | 227 kts | 277° |
| 2026-05-04 19:22 | 47.44556 | 8.72322 | 3672 ft | 215 kts | 275° |
| 2026-05-04 19:22 | 47.44704 | 8.70212 | 3369 ft | 201 kts | 277° |
| 2026-05-04 19:23 | 47.44852 | 8.68199 | 3083 ft | 190 kts | 278° |
| 2026-05-04 19:23 | 47.44986 | 8.66378 | 2801 ft | 169 kts | 278° |
| 2026-05-04 19:23 | 47.45106 | 8.64716 | 2563 ft | 157 kts | 277° |
| 2026-05-04 19:23 | 47.45222 | 8.63114 | 2334 ft | 154 kts | 277° |
| 2026-05-04 19:24 | 47.45335 | 8.61562 | 2105 ft | 153 kts | 276° |
| 2026-05-04 19:24 | 47.45448 | 8.60002 | 1871 ft | 153 kts | 276° |
| 2026-05-04 19:24 | 47.45563 | 8.58442 | 1643 ft | 149 kts | 277° |
| 2026-05-04 19:24 | 47.45667 | 8.56948 | 1419 ft | 146 kts | 276° |
| 2026-05-04 19:25 | 47.45761 | 8.55592 | 1391 ft | 115 kts | 277° |
| 2026-05-04 19:25 | 47.45828 | 8.54684 | 1390 ft | 61 kts | 276° |
| 2026-05-04 19:25 | 47.45855 | 8.54393 | 1391 ft | 16 kts | 288° |
| 2026-05-04 19:25 | 47.45900 | 8.54279 | 1392 ft | 5 kts | 331° |
| 2026-05-04 19:26 | 47.45929 | 8.54277 | 1393 ft | 2 kts | 16° |
| 2026-05-04 19:26 | 47.45938 | 8.54284 | 1394 ft | 1 kts | 34° |
| 2026-05-04 19:26 | 47.45952 | 8.54315 | 1395 ft | 6 kts | 75° |
| 2026-05-04 19:26 | 47.45951 | 8.54412 | 1392 ft | 12 kts | 95° |
| 2026-05-04 19:27 | 47.45941 | 8.54551 | 1389 ft | 14 kts | 96° |
| 2026-05-04 19:27 | 47.45932 | 8.54697 | 1388 ft | 14 kts | 95° |
| 2026-05-04 19:27 | 47.45923 | 8.54838 | 1389 ft | 13 kts | 96° |
| 2026-05-04 19:27 | 47.45913 | 8.54971 | 1390 ft | 12 kts | 97° |
| 2026-05-04 19:28 | 47.45912 | 8.55082 | 1390 ft | 10 kts | 65° |
| 2026-05-04 19:28 | 47.45961 | 8.55155 | 1390 ft | 10 kts | 41° |
| 2026-05-04 19:28 | 47.45984 | 8.55246 | 1390 ft | 9 kts | 95° |
| 2026-05-04 19:28 | 47.45977 | 8.55346 | 1390 ft | 9 kts | 97° |
| 2026-05-04 19:29 | 47.46007 | 8.55413 | 1390 ft | 8 kts | 22° |
| 2026-05-04 19:29 | 47.46053 | 8.55428 | 1390 ft | 1 kts | 8° |
| 2026-05-04 19:29 | 47.46056 | 8.55429 | 1390 ft | 0 kts | 8° |